createdAt,value
2022-12-27T00:00:23.868Z,2.30
2022-12-27T00:02:31.327Z,2.30
2022-12-27T00:04:37.439Z,2.40
2022-12-27T00:06:43.826Z,2.40
2022-12-27T00:08:50.156Z,2.40
2022-12-27T00:10:55.415Z,2.30
2022-12-27T00:13:00.338Z,2.30
2022-12-27T00:15:09.737Z,2.40
2022-12-27T00:17:14.694Z,2.50
2022-12-27T00:19:19.631Z,2.30
2022-12-27T00:21:25.364Z,2.30
2022-12-27T00:23:33.950Z,2.40
2022-12-27T00:25:38.850Z,2.30
2022-12-27T00:27:43.905Z,2.30
2022-12-27T00:29:48.874Z,2.40
2022-12-27T00:31:56.518Z,2.40
2022-12-27T00:34:05.775Z,2.50
2022-12-27T00:36:19.504Z,2.40
2022-12-27T00:38:24.991Z,2.40
2022-12-27T00:40:29.951Z,2.40
2022-12-27T00:42:34.965Z,2.50
2022-12-27T00:44:40.027Z,2.50
2022-12-27T00:46:44.994Z,2.60
2022-12-27T00:48:52.628Z,2.60
2022-12-27T00:51:02.392Z,2.60
2022-12-27T00:53:07.875Z,2.70
2022-12-27T00:55:12.993Z,2.60
2022-12-27T00:57:17.922Z,2.70
2022-12-27T00:59:23.115Z,2.60
2022-12-27T01:01:32.240Z,2.60
2022-12-27T01:03:37.430Z,2.60
2022-12-27T01:05:45.088Z,2.60
2022-12-27T01:07:50.124Z,2.70
2022-12-27T01:09:55.140Z,2.60
2022-12-27T01:12:00.213Z,2.60
2022-12-27T01:14:08.152Z,2.60
2022-12-27T01:16:14.484Z,2.70
2022-12-27T01:18:19.674Z,2.50
2022-12-27T01:20:26.451Z,2.50
2022-12-27T01:22:34.016Z,2.50
2022-12-27T01:24:39.187Z,2.50
2022-12-27T01:26:44.282Z,2.50
2022-12-27T01:28:50.375Z,2.50
2022-12-27T01:30:57.760Z,2.40
2022-12-27T01:33:02.742Z,2.50
2022-12-27T01:35:08.736Z,2.50
2022-12-27T01:37:13.755Z,2.50
2022-12-27T01:39:24.359Z,2.40
2022-12-27T01:41:46.053Z,2.40
2022-12-27T01:43:51.444Z,2.40
2022-12-27T01:45:56.883Z,2.40
2022-12-27T01:48:07.270Z,2.40
2022-12-27T01:50:22.592Z,2.30
2022-12-27T01:52:35.086Z,2.40
2022-12-27T01:54:43.403Z,2.40
2022-12-27T01:56:48.405Z,2.40
2022-12-27T01:59:00.160Z,2.40
2022-12-27T02:01:06.778Z,2.30
2022-12-27T02:03:12.054Z,2.30
2022-12-27T02:05:19.635Z,2.30
2022-12-27T02:07:32.609Z,2.30
2022-12-27T02:09:46.483Z,2.30
2022-12-27T02:11:57.381Z,2.30
2022-12-27T02:14:02.678Z,2.30
2022-12-27T02:16:16.189Z,2.20
2022-12-27T02:18:21.565Z,2.20
2022-12-27T02:20:32.703Z,2.30
2022-12-27T02:23:39.178Z,2.30
2022-12-27T02:26:52.027Z,2.30
2022-12-27T02:29:20.932Z,2.30
2022-12-27T02:31:33.929Z,2.30
2022-12-27T02:33:47.076Z,2.20
2022-12-27T02:36:00.579Z,2.20
2022-12-27T02:38:10.249Z,2.20
2022-12-27T02:40:30.174Z,2.30
2022-12-27T02:42:50.040Z,2.20
2022-12-27T02:45:12.502Z,2.20
2022-12-27T02:47:35.810Z,2.10
2022-12-27T02:49:57.636Z,2.20
2022-12-27T02:52:27.420Z,2.20
2022-12-27T02:54:59.848Z,2.10
2022-12-27T02:57:16.438Z,2.20
2022-12-27T03:00:00.918Z,2.20
2022-12-27T03:02:43.457Z,2.10
2022-12-27T03:05:09.455Z,2.10
2022-12-27T03:07:32.247Z,2.10
2022-12-27T03:10:17.146Z,2.10
2022-12-27T03:12:48.657Z,2.00
2022-12-27T03:15:11.786Z,2.10
2022-12-27T03:17:34.801Z,2.00
2022-12-27T03:19:59.732Z,2.10
2022-12-27T03:22:19.329Z,2.00
2022-12-27T03:24:41.232Z,2.10
2022-12-27T03:26:51.667Z,2.10
2022-12-27T03:29:12.823Z,2.10
2022-12-27T03:31:37.920Z,2.00
2022-12-27T03:33:46.979Z,2.10
2022-12-27T03:36:12.637Z,2.00
2022-12-27T03:38:19.926Z,2.00
2022-12-27T03:40:34.690Z,2.10
2022-12-27T03:42:58.916Z,2.10
2022-12-27T03:45:03.853Z,2.10
2022-12-27T03:47:18.119Z,2.10
2022-12-27T03:49:33.636Z,2.00
2022-12-27T03:51:43.071Z,2.00
2022-12-27T03:53:52.467Z,2.00
2022-12-27T03:55:58.599Z,2.00
2022-12-27T03:58:03.655Z,2.00
2022-12-27T04:00:11.352Z,2.10
2022-12-27T04:02:22.129Z,2.10
2022-12-27T04:04:30.220Z,2.10
2022-12-27T04:06:35.154Z,2.10
2022-12-27T04:08:52.714Z,2.20
2022-12-27T04:11:11.187Z,2.20
2022-12-27T04:13:28.634Z,2.10
2022-12-27T04:15:46.222Z,2.10
2022-12-27T04:18:03.689Z,2.10
2022-12-27T04:20:24.494Z,2.10
2022-12-27T04:22:41.968Z,2.10
2022-12-27T04:24:59.777Z,2.10
2022-12-27T04:27:17.418Z,2.10
2022-12-27T04:29:34.920Z,2.10
2022-12-27T04:31:53.890Z,2.10
2022-12-27T04:34:11.678Z,2.10
2022-12-27T04:36:18.999Z,2.10
2022-12-27T04:38:24.709Z,2.10
2022-12-27T04:40:42.881Z,2.10
2022-12-27T04:43:00.411Z,2.00
2022-12-27T04:45:18.293Z,2.10
2022-12-27T04:47:37.678Z,2.00
2022-12-27T04:49:55.676Z,2.10
2022-12-27T04:52:26.026Z,2.00
2022-12-27T04:54:43.808Z,2.10
2022-12-27T04:56:48.787Z,2.00
2022-12-27T04:59:06.008Z,2.00
2022-12-27T05:01:23.512Z,2.00
2022-12-27T05:03:28.569Z,2.00
2022-12-27T05:05:33.868Z,2.00
2022-12-27T05:07:54.766Z,2.00
2022-12-27T05:10:12.724Z,2.00
2022-12-27T05:12:30.196Z,2.00
2022-12-27T05:14:35.141Z,2.00
2022-12-27T05:16:43.723Z,2.00
2022-12-27T05:18:50.449Z,2.00
2022-12-27T05:20:55.540Z,2.00
2022-12-27T05:23:15.592Z,2.00
2022-12-27T05:25:33.842Z,2.10
2022-12-27T05:27:38.837Z,2.00
2022-12-27T05:29:43.824Z,2.00
2022-12-27T05:31:48.854Z,2.00
2022-12-27T05:33:55.527Z,2.00
2022-12-27T05:36:02.541Z,2.00
2022-12-27T05:38:10.551Z,2.00
2022-12-27T05:40:16.468Z,1.90
2022-12-27T05:42:22.176Z,1.90
2022-12-27T05:44:27.111Z,2.00
2022-12-27T05:46:32.221Z,1.90
2022-12-27T05:48:38.198Z,2.00
2022-12-27T05:50:43.161Z,2.00
2022-12-27T05:52:48.465Z,2.00
2022-12-27T05:54:55.950Z,2.10
2022-12-27T05:57:00.877Z,2.00
2022-12-27T05:59:07.986Z,2.10
2022-12-27T06:01:19.433Z,2.10
2022-12-27T06:03:25.076Z,2.10
2022-12-27T06:05:30.106Z,2.10
2022-12-27T06:07:35.072Z,2.10
2022-12-27T06:09:40.096Z,2.10
2022-12-27T06:11:47.605Z,2.00
2022-12-27T06:13:55.789Z,2.00
2022-12-27T06:16:03.876Z,2.00
2022-12-27T06:18:08.991Z,2.00
2022-12-27T06:20:14.039Z,2.00
2022-12-27T06:22:18.999Z,2.00
2022-12-27T06:24:24.331Z,2.00
2022-12-27T06:26:31.887Z,2.00
2022-12-27T06:28:39.436Z,2.00
2022-12-27T06:30:47.816Z,2.00
2022-12-27T06:32:52.757Z,2.00
2022-12-27T06:34:58.315Z,2.00
2022-12-27T06:37:03.258Z,2.10
2022-12-27T06:39:09.014Z,2.00
2022-12-27T06:41:17.519Z,2.00
2022-12-27T06:43:22.513Z,2.10
2022-12-27T06:45:30.393Z,2.10
2022-12-27T06:47:35.500Z,2.10
2022-12-27T06:49:40.965Z,2.00
2022-12-27T06:51:52.592Z,2.10
2022-12-27T06:54:01.287Z,2.10
2022-12-27T06:56:07.431Z,2.00
2022-12-27T06:58:13.898Z,2.10
2022-12-27T07:00:20.788Z,2.10
2022-12-27T07:02:28.782Z,2.20
2022-12-27T07:04:33.773Z,2.20
2022-12-27T07:06:40.853Z,2.20
2022-12-27T07:08:46.189Z,2.20
2022-12-27T07:10:51.203Z,2.10
2022-12-27T07:12:56.164Z,2.10
2022-12-27T07:15:01.225Z,2.10
2022-12-27T07:17:06.201Z,2.10
2022-12-27T07:19:15.274Z,2.10
2022-12-27T07:21:23.670Z,2.10
2022-12-27T07:23:28.596Z,2.10
2022-12-27T07:25:33.539Z,2.10
2022-12-27T07:27:39.074Z,2.10
2022-12-27T07:29:45.910Z,2.20
2022-12-27T07:31:51.134Z,2.10
2022-12-27T07:33:56.556Z,2.10
2022-12-27T07:36:05.116Z,2.10
2022-12-27T07:38:10.110Z,2.10
2022-12-27T07:40:16.196Z,2.10
2022-12-27T07:42:21.319Z,2.10
2022-12-27T07:44:26.726Z,2.10
2022-12-27T07:46:32.909Z,2.10
2022-12-27T07:48:38.493Z,2.10
2022-12-27T07:50:43.416Z,2.20
2022-12-27T07:52:50.911Z,2.20
2022-12-27T07:54:55.813Z,2.20
2022-12-27T07:57:00.975Z,2.30
2022-12-27T07:59:05.926Z,2.30
2022-12-27T08:01:12.164Z,2.30
2022-12-27T08:03:17.880Z,2.30
2022-12-27T08:05:27.704Z,2.30
2022-12-27T08:07:33.010Z,2.30
2022-12-27T08:09:43.704Z,2.40
2022-12-27T08:11:48.715Z,2.40
2022-12-27T08:13:53.711Z,2.40
2022-12-27T08:15:58.719Z,2.40
2022-12-27T08:18:03.824Z,2.40
2022-12-27T08:20:16.304Z,2.50
2022-12-27T08:22:21.298Z,2.50
2022-12-27T08:24:26.405Z,2.50
2022-12-27T08:26:33.979Z,2.50
2022-12-27T08:28:39.511Z,2.50
2022-12-27T08:30:47.419Z,2.50
2022-12-27T08:32:52.236Z,2.50
2022-12-27T08:35:12.031Z,2.60
2022-12-27T08:37:22.263Z,2.60
2022-12-27T08:39:27.387Z,2.60
2022-12-27T08:41:35.076Z,2.70
2022-12-27T08:43:40.191Z,2.70
2022-12-27T08:45:45.296Z,2.70
2022-12-27T08:47:50.462Z,2.70
2022-12-27T08:49:55.402Z,2.70
2022-12-27T08:52:00.460Z,2.70
2022-12-27T08:54:05.612Z,2.70
2022-12-27T08:56:10.861Z,2.70
2022-12-27T08:58:18.343Z,2.70
2022-12-27T09:00:24.524Z,2.70
2022-12-27T09:02:29.587Z,2.70
2022-12-27T09:04:34.586Z,2.70
2022-12-27T09:06:42.200Z,2.80
2022-12-27T09:08:49.242Z,2.80
2022-12-27T09:10:54.402Z,2.90
2022-12-27T09:12:59.304Z,2.80
2022-12-27T09:15:08.049Z,2.90
2022-12-27T09:17:13.000Z,2.90
2022-12-27T09:19:18.040Z,2.90
2022-12-27T09:21:25.676Z,2.90
2022-12-27T09:23:30.716Z,2.90
2022-12-27T09:25:36.139Z,2.90
2022-12-27T09:27:41.749Z,2.90
2022-12-27T09:29:48.556Z,3.00
2022-12-27T09:31:56.266Z,3.00
2022-12-27T09:34:01.897Z,3.00
2022-12-27T09:36:11.126Z,3.00
2022-12-27T09:38:16.089Z,3.10
2022-12-27T09:40:24.012Z,3.20
2022-12-27T09:43:06.280Z,3.20
2022-12-27T09:45:11.855Z,3.20
2022-12-27T09:47:28.059Z,3.20
2022-12-27T09:49:41.564Z,3.20
2022-12-27T09:51:53.162Z,3.30
2022-12-27T09:54:04.957Z,3.30
2022-12-27T09:56:14.801Z,3.40
2022-12-27T09:58:35.792Z,3.40
2022-12-27T10:00:46.084Z,3.50
2022-12-27T10:02:54.845Z,3.70
2022-12-27T10:05:31.589Z,3.70
2022-12-27T10:07:43.762Z,3.70
2022-12-27T10:10:02.113Z,3.70
2022-12-27T10:12:29.635Z,3.70
2022-12-27T10:15:01.902Z,3.80
2022-12-27T10:17:17.586Z,3.80
2022-12-27T10:19:41.843Z,4.00
2022-12-27T10:22:05.198Z,4.10
2022-12-27T10:24:26.627Z,3.90
2022-12-27T10:26:31.858Z,4.00
2022-12-27T10:28:42.627Z,4.00
2022-12-27T10:30:47.989Z,4.10
2022-12-27T10:32:54.599Z,4.10
2022-12-27T10:35:06.483Z,4.20
2022-12-27T10:37:16.825Z,4.20
2022-12-27T10:39:28.817Z,4.10
2022-12-27T10:41:50.221Z,4.20
2022-12-27T10:43:57.895Z,4.20
2022-12-27T10:46:15.978Z,4.20
2022-12-27T10:48:23.965Z,4.10
2022-12-27T10:50:31.822Z,4.00
2022-12-27T10:52:38.293Z,4.00
2022-12-27T10:54:54.963Z,4.10
2022-12-27T10:57:18.824Z,4.10
2022-12-27T10:59:27.064Z,4.10
2022-12-27T11:01:34.937Z,4.10
2022-12-27T11:03:39.968Z,4.10
2022-12-27T11:06:03.843Z,4.20
2022-12-27T11:08:23.576Z,4.30
2022-12-27T11:10:31.464Z,4.50
2022-12-27T11:12:36.785Z,4.30
2022-12-27T11:14:42.163Z,4.30
2022-12-27T11:16:48.660Z,4.30
2022-12-27T11:18:58.499Z,4.30
2022-12-27T11:21:07.149Z,4.40
2022-12-27T11:23:18.952Z,4.40
2022-12-27T11:25:25.253Z,4.50
2022-12-27T11:27:32.804Z,4.50
2022-12-27T11:29:48.696Z,4.50
2022-12-27T11:31:55.465Z,4.50
2022-12-27T11:34:04.333Z,4.60
2022-12-27T11:36:14.618Z,4.60
2022-12-27T11:38:27.617Z,4.60
2022-12-27T11:40:35.947Z,4.60
2022-12-27T11:42:46.235Z,4.60
2022-12-27T11:45:05.716Z,4.70
2022-12-27T11:47:19.749Z,4.70
2022-12-27T11:49:30.995Z,4.80
2022-12-27T11:52:13.404Z,4.80
2022-12-27T11:54:42.968Z,4.70
2022-12-27T11:56:53.667Z,4.70
2022-12-27T11:59:28.807Z,4.70
2022-12-27T12:02:34.303Z,4.70
2022-12-27T12:05:44.013Z,4.80
2022-12-27T12:08:16.473Z,4.80
2022-12-27T12:10:35.583Z,4.80
2022-12-27T12:13:11.374Z,4.90
2022-12-27T12:16:03.613Z,5.00
2022-12-27T12:18:50.457Z,5.00
2022-12-27T12:21:22.001Z,5.00
2022-12-27T12:23:45.508Z,5.00
2022-12-27T12:26:15.801Z,5.00
2022-12-27T12:29:07.743Z,4.90
2022-12-27T12:31:30.325Z,4.80
2022-12-27T12:34:01.696Z,4.70
2022-12-27T12:36:40.606Z,4.80
2022-12-27T12:38:59.449Z,4.90
2022-12-27T12:41:34.354Z,4.90
2022-12-27T12:44:01.525Z,4.90
2022-12-27T12:46:29.348Z,4.90
2022-12-27T12:49:14.243Z,4.80
2022-12-27T12:51:44.227Z,4.90
2022-12-27T12:54:12.619Z,4.90
2022-12-27T12:56:43.431Z,4.90
2022-12-27T12:58:59.845Z,4.90
2022-12-27T13:01:40.209Z,4.90
2022-12-27T13:04:25.601Z,5.00
2022-12-27T13:07:09.080Z,5.00
2022-12-27T13:09:28.990Z,5.00
2022-12-27T13:11:47.634Z,5.00
2022-12-27T13:14:19.227Z,5.00
2022-12-27T13:16:38.490Z,5.00
2022-12-27T13:18:56.531Z,5.00
2022-12-27T13:21:16.725Z,5.00
2022-12-27T13:23:37.781Z,5.10
2022-12-27T13:25:55.752Z,5.20
2022-12-27T13:28:18.393Z,5.10
2022-12-27T13:30:27.047Z,5.00
2022-12-27T13:32:49.695Z,4.90
2022-12-27T13:35:14.918Z,4.90
2022-12-27T13:37:35.621Z,4.80
2022-12-27T13:39:58.166Z,4.90
2022-12-27T13:42:40.718Z,4.90
2022-12-27T13:44:57.007Z,4.90
2022-12-27T13:47:31.882Z,4.90
2022-12-27T13:50:30.851Z,4.90
2022-12-27T13:53:00.056Z,4.90
2022-12-27T13:55:40.178Z,4.90
2022-12-27T13:58:24.639Z,4.90
2022-12-27T14:00:36.321Z,4.90
2022-12-27T14:03:28.832Z,4.90
2022-12-27T14:06:16.085Z,4.90
2022-12-27T14:08:29.969Z,4.90
2022-12-27T14:10:43.321Z,4.90
2022-12-27T14:13:02.339Z,4.90
2022-12-27T14:15:18.421Z,4.90
2022-12-27T14:17:36.136Z,4.90
2022-12-27T14:20:07.606Z,4.90
2022-12-27T14:22:53.937Z,4.90
2022-12-27T14:26:03.338Z,4.90
2022-12-27T14:29:00.165Z,4.80
2022-12-27T14:31:53.144Z,4.80
2022-12-27T14:34:34.172Z,4.90
2022-12-27T14:37:24.850Z,4.90
2022-12-27T14:40:21.033Z,4.90
2022-12-27T14:43:17.745Z,4.80
2022-12-27T14:46:26.163Z,4.80
2022-12-27T14:49:19.343Z,4.80
2022-12-27T14:52:12.167Z,4.80
2022-12-27T14:55:16.403Z,4.80
2022-12-27T14:57:33.961Z,4.80
2022-12-27T14:59:47.481Z,4.80
2022-12-27T15:02:07.015Z,4.80
2022-12-27T15:04:46.277Z,4.80
2022-12-27T15:07:22.822Z,4.70
2022-12-27T15:09:40.481Z,4.70
2022-12-27T15:12:07.451Z,4.70
2022-12-27T15:14:44.139Z,4.70
2022-12-27T15:17:00.513Z,4.70
2022-12-27T15:19:25.818Z,4.60
2022-12-27T15:22:01.079Z,4.60
2022-12-27T15:24:21.044Z,4.60
2022-12-27T15:26:37.715Z,4.50
2022-12-27T15:29:01.887Z,4.50
2022-12-27T15:31:15.988Z,4.50
2022-12-27T15:33:35.961Z,4.50
2022-12-27T15:35:56.470Z,4.50
2022-12-27T15:38:20.419Z,4.40
2022-12-27T15:40:49.744Z,4.40
2022-12-27T15:43:04.870Z,4.30
2022-12-27T15:45:28.868Z,4.40
2022-12-27T15:47:56.479Z,4.40
2022-12-27T15:50:50.295Z,4.30
2022-12-27T15:53:21.742Z,4.30
2022-12-27T15:55:52.234Z,4.30
2022-12-27T15:58:19.854Z,4.40
2022-12-27T16:00:33.970Z,4.30
2022-12-27T16:02:52.502Z,4.30
2022-12-27T16:05:01.286Z,4.30
2022-12-27T16:07:07.142Z,4.30
2022-12-27T16:09:38.388Z,4.30
2022-12-27T16:12:04.969Z,4.30
2022-12-27T16:14:29.457Z,4.30
2022-12-27T16:17:01.694Z,4.30
2022-12-27T16:19:22.103Z,4.30
2022-12-27T16:21:29.203Z,4.40
2022-12-27T16:23:37.852Z,4.40
2022-12-27T16:25:46.423Z,4.40
2022-12-27T16:27:59.139Z,4.40
2022-12-27T16:30:04.223Z,4.40
2022-12-27T16:32:25.906Z,4.40
2022-12-27T16:34:33.115Z,4.40
2022-12-27T16:36:40.011Z,4.40
2022-12-27T16:38:51.925Z,4.50
2022-12-27T16:41:15.173Z,4.50
2022-12-27T16:43:53.944Z,4.50
2022-12-27T16:46:16.464Z,4.50
2022-12-27T16:48:31.523Z,4.40
2022-12-27T16:51:10.753Z,4.50
2022-12-27T16:53:43.367Z,4.50
2022-12-27T16:56:29.015Z,4.50
2022-12-27T16:58:39.740Z,4.50
2022-12-27T17:00:46.722Z,4.50
2022-12-27T17:02:53.132Z,4.50
2022-12-27T17:05:01.272Z,4.50
2022-12-27T17:07:09.811Z,4.40
2022-12-27T17:09:46.438Z,4.40
2022-12-27T17:12:14.336Z,4.40
2022-12-27T17:14:25.405Z,4.40
2022-12-27T17:16:35.188Z,4.40
2022-12-27T17:18:49.516Z,4.40
2022-12-27T17:21:06.328Z,4.40
2022-12-27T17:23:11.448Z,4.40
2022-12-27T17:25:32.719Z,4.40
2022-12-27T17:28:08.091Z,4.40
2022-12-27T17:30:23.316Z,4.50
2022-12-27T17:33:05.529Z,4.50
2022-12-27T17:35:27.127Z,4.50
2022-12-27T17:37:42.571Z,4.50
2022-12-27T17:40:10.328Z,4.50
2022-12-27T17:42:37.035Z,4.50
2022-12-27T17:45:08.037Z,4.50
2022-12-27T17:47:56.577Z,4.50
2022-12-27T17:50:03.301Z,4.50
2022-12-27T17:52:23.595Z,4.50
2022-12-27T17:54:41.730Z,4.50
2022-12-27T17:57:01.599Z,4.40
2022-12-27T17:59:11.682Z,4.50
2022-12-27T18:01:20.031Z,4.50
2022-12-27T18:03:27.070Z,4.50
2022-12-27T18:05:36.052Z,4.50
2022-12-27T18:07:41.965Z,4.40
2022-12-27T18:09:54.731Z,4.50
2022-12-27T18:12:00.209Z,4.50
2022-12-27T18:14:06.183Z,4.50
2022-12-27T18:16:23.952Z,4.50
2022-12-27T18:18:31.115Z,4.50
2022-12-27T18:20:40.871Z,4.40
2022-12-27T18:22:46.393Z,4.50
2022-12-27T18:24:51.787Z,4.50
2022-12-27T18:27:06.031Z,4.40
2022-12-27T18:29:14.606Z,4.40
2022-12-27T18:31:28.678Z,4.50
2022-12-27T18:33:37.495Z,4.50
2022-12-27T18:35:43.582Z,4.50
2022-12-27T18:37:50.420Z,4.50
2022-12-27T18:39:58.000Z,4.50
2022-12-27T18:42:07.937Z,4.50
2022-12-27T18:44:26.555Z,4.50
2022-12-27T18:46:40.346Z,4.50
2022-12-27T18:48:45.777Z,4.50
2022-12-27T18:50:54.844Z,4.50
2022-12-27T18:53:06.222Z,4.50
2022-12-27T18:55:20.769Z,4.50
2022-12-27T18:57:37.421Z,4.50
2022-12-27T18:59:42.481Z,4.50
2022-12-27T19:01:51.395Z,4.50
2022-12-27T19:04:26.902Z,4.50
2022-12-27T19:06:34.680Z,4.50
2022-12-27T19:08:42.522Z,4.50
2022-12-27T19:10:50.315Z,4.50
2022-12-27T19:12:56.456Z,4.50
2022-12-27T19:15:01.454Z,4.50
2022-12-27T19:17:11.455Z,4.50
2022-12-27T19:19:22.514Z,4.50
2022-12-27T19:21:35.613Z,4.50
2022-12-27T19:23:49.037Z,4.50
2022-12-27T19:26:04.572Z,4.50
2022-12-27T19:28:28.967Z,4.40
2022-12-27T19:30:37.435Z,4.40
2022-12-27T19:32:45.445Z,4.40
2022-12-27T19:34:55.287Z,4.40
2022-12-27T19:37:00.747Z,4.40
2022-12-27T19:39:07.667Z,4.40
2022-12-27T19:41:16.665Z,4.40
2022-12-27T19:43:23.020Z,4.40
2022-12-27T19:45:29.966Z,4.30
2022-12-27T19:47:39.171Z,4.30
2022-12-27T19:49:47.152Z,4.30
2022-12-27T19:51:52.365Z,4.30
2022-12-27T19:53:58.158Z,4.30
2022-12-27T19:56:03.544Z,4.30
2022-12-27T19:58:08.539Z,4.30
2022-12-27T20:00:18.808Z,4.30
2022-12-27T20:02:25.025Z,4.40
2022-12-27T20:04:30.177Z,4.40
2022-12-27T20:06:37.971Z,4.30
2022-12-27T20:08:46.874Z,4.30
2022-12-27T20:10:53.401Z,4.30
2022-12-27T20:12:58.411Z,4.30
2022-12-27T20:15:03.688Z,4.30
2022-12-27T20:17:08.684Z,4.30
2022-12-27T20:19:16.501Z,4.30
2022-12-27T20:21:23.058Z,4.30
2022-12-27T20:23:30.582Z,4.30
2022-12-27T20:25:36.226Z,4.30
2022-12-27T20:27:41.181Z,4.20
2022-12-27T20:29:46.085Z,4.20
2022-12-27T20:31:52.307Z,4.20
2022-12-27T20:33:58.821Z,4.10
2022-12-27T20:36:04.261Z,4.10
2022-12-27T20:38:09.734Z,4.10
2022-12-27T20:40:17.406Z,4.10
2022-12-27T20:42:23.780Z,4.10
2022-12-27T20:44:28.736Z,4.00
2022-12-27T20:46:33.659Z,4.00
2022-12-27T20:48:40.807Z,4.00
2022-12-27T20:50:45.736Z,4.00
2022-12-27T20:52:50.659Z,4.00
2022-12-27T20:54:55.614Z,4.10
2022-12-27T20:57:03.219Z,4.00
2022-12-27T20:59:08.432Z,4.10
2022-12-27T21:01:16.435Z,4.10
2022-12-27T21:03:21.752Z,4.00
2022-12-27T21:05:29.493Z,4.00
2022-12-27T21:07:34.742Z,4.00
2022-12-27T21:09:39.822Z,4.00
2022-12-27T21:11:44.771Z,4.00
2022-12-27T21:13:52.988Z,3.90
2022-12-27T21:15:57.977Z,3.90
2022-12-27T21:18:02.990Z,3.90
2022-12-27T21:20:11.216Z,3.90
2022-12-27T21:22:16.210Z,3.80
2022-12-27T21:24:21.131Z,3.80
2022-12-27T21:26:29.667Z,3.80
2022-12-27T21:28:34.664Z,3.80
2022-12-27T21:30:42.206Z,3.70
2022-12-27T21:32:47.175Z,3.70
2022-12-27T21:34:52.128Z,3.70
2022-12-27T21:36:57.111Z,3.70
2022-12-27T21:39:02.518Z,3.60
2022-12-27T21:41:10.769Z,3.60
2022-12-27T21:43:15.663Z,3.60
2022-12-27T21:45:20.561Z,3.60
2022-12-27T21:47:29.323Z,3.50
2022-12-27T21:49:35.069Z,3.60
2022-12-27T21:51:41.663Z,3.60
2022-12-27T21:53:47.664Z,3.50
2022-12-27T21:56:01.019Z,3.60
2022-12-27T21:58:06.210Z,3.60
2022-12-27T22:00:14.560Z,3.50
2022-12-27T22:02:20.491Z,3.50
2022-12-27T22:04:28.122Z,3.50
2022-12-27T22:06:35.130Z,3.50
2022-12-27T22:08:40.264Z,3.50
2022-12-27T22:10:45.417Z,3.40
2022-12-27T22:12:50.378Z,3.40
2022-12-27T22:14:55.340Z,3.50
2022-12-27T22:17:02.077Z,3.50
2022-12-27T22:19:09.581Z,3.50
2022-12-27T22:21:21.503Z,3.40
2022-12-27T22:23:26.495Z,3.40
2022-12-27T22:25:31.440Z,3.40
2022-12-27T22:27:36.422Z,3.40
2022-12-27T22:29:43.208Z,3.40
2022-12-27T22:31:48.184Z,3.30
2022-12-27T22:33:54.246Z,3.30
2022-12-27T22:36:06.294Z,3.30
2022-12-27T22:38:13.845Z,3.30
2022-12-27T22:40:41.367Z,3.30
2022-12-27T22:42:44.009Z,3.30
2022-12-27T22:44:48.946Z,3.30
2022-12-27T22:49:20.520Z,3.30
2022-12-27T22:51:28.785Z,3.30
2022-12-27T22:53:36.443Z,3.20
2022-12-27T22:55:43.404Z,3.20
2022-12-27T22:57:48.354Z,3.20
2022-12-27T22:59:53.321Z,3.20
2022-12-27T23:01:58.464Z,3.20
2022-12-27T23:04:06.244Z,3.20
2022-12-27T23:06:12.381Z,3.30
2022-12-27T23:08:18.368Z,3.30
2022-12-27T23:10:25.926Z,3.30
2022-12-27T23:12:30.869Z,3.30
2022-12-27T23:14:35.782Z,3.30
2022-12-27T23:16:43.252Z,3.30
2022-12-27T23:18:48.479Z,3.40
2022-12-27T23:21:20.254Z,3.40
2022-12-27T23:23:18.466Z,3.40
2022-12-27T23:25:26.239Z,3.40
2022-12-27T23:27:31.188Z,3.30
2022-12-27T23:29:36.161Z,3.40
2022-12-27T23:31:54.795Z,3.40
2022-12-27T23:34:00.893Z,3.40
2022-12-27T23:36:06.500Z,3.40
2022-12-27T23:38:11.454Z,3.50
2022-12-27T23:40:16.605Z,3.40
2022-12-27T23:42:24.135Z,3.40
2022-12-27T23:44:34.411Z,3.40
2022-12-27T23:46:39.867Z,3.40
2022-12-27T23:48:45.897Z,3.40
2022-12-27T23:50:51.200Z,3.40
2022-12-27T23:52:56.120Z,3.40
2022-12-27T23:55:01.079Z,3.40
2022-12-27T23:57:20.171Z,3.40
2022-12-27T23:59:28.673Z,3.40
